createdAt,value
2023-05-06T00:01:46.468Z,42.77
2023-05-06T00:04:34.884Z,42.80
2023-05-06T00:07:23.387Z,42.53
2023-05-06T00:10:11.802Z,42.30
2023-05-06T00:13:01.694Z,42.43
2023-05-06T00:15:50.183Z,42.50
2023-05-06T00:18:38.536Z,42.20
2023-05-06T00:21:28.300Z,43.57
2023-05-06T00:24:16.681Z,42.87
2023-05-06T00:27:05.084Z,41.60
2023-05-06T00:29:54.865Z,41.33
2023-05-06T00:32:43.381Z,42.87
2023-05-06T00:35:31.873Z,42.77
2023-05-06T00:38:20.543Z,41.43
2023-05-06T00:41:09.981Z,41.87
2023-05-06T00:43:58.420Z,42.80
2023-05-06T00:46:48.199Z,41.27
2023-05-06T00:49:36.617Z,41.90
2023-05-06T00:52:25.057Z,42.77
2023-05-06T00:55:13.464Z,42.67
2023-05-06T00:58:02.092Z,41.87
2023-05-06T01:00:52.335Z,42.97
2023-05-06T01:03:42.317Z,42.57
2023-05-06T01:06:35.878Z,42.37
2023-05-06T01:09:29.867Z,41.47
2023-05-06T01:12:22.431Z,41.63
2023-05-06T01:15:15.095Z,42.17
2023-05-06T01:18:07.843Z,44.10
2023-05-06T01:20:57.998Z,41.80
2023-05-06T01:23:53.399Z,43.33
2023-05-06T01:26:42.999Z,41.37
2023-05-06T01:29:31.501Z,42.07
2023-05-06T01:32:27.664Z,40.47
2023-05-06T01:35:19.128Z,40.50
2023-05-06T01:38:15.585Z,41.17
2023-05-06T01:41:05.843Z,41.17
2023-05-06T01:43:55.297Z,40.80
2023-05-06T01:46:44.501Z,43.00
2023-05-06T01:49:34.139Z,40.83
2023-05-06T01:52:22.944Z,41.87
2023-05-06T01:55:11.992Z,41.97
2023-05-06T01:58:02.470Z,42.70
2023-05-06T02:00:50.885Z,40.77
2023-05-06T02:03:39.459Z,41.40
2023-05-06T02:06:28.079Z,41.57
2023-05-06T02:09:16.607Z,41.37
2023-05-06T02:12:11.657Z,41.37
2023-05-06T02:15:01.437Z,41.90
2023-05-06T02:17:50.314Z,42.00
2023-05-06T02:20:38.887Z,41.00
2023-05-06T02:23:27.682Z,41.73
2023-05-06T02:26:16.515Z,41.37
2023-05-06T02:29:04.927Z,42.07
2023-05-06T02:31:54.759Z,41.70
2023-05-06T02:34:43.126Z,40.60
2023-05-06T02:37:31.514Z,42.00
2023-05-06T02:40:21.883Z,41.30
2023-05-06T02:43:10.256Z,42.50
2023-05-06T02:46:18.262Z,41.30
2023-05-06T02:49:27.010Z,41.10
2023-05-06T02:52:15.518Z,40.90
2023-05-06T02:55:04.176Z,40.97
2023-05-06T02:57:52.571Z,41.23
2023-05-06T03:00:40.939Z,41.27
2023-05-06T03:03:29.352Z,42.80
2023-05-06T03:06:19.130Z,39.83
2023-05-06T03:09:08.691Z,41.87
2023-05-06T03:11:57.858Z,40.47
2023-05-06T03:14:46.415Z,40.57
2023-05-06T03:17:34.854Z,41.90
2023-05-06T03:20:25.819Z,41.47
2023-05-06T03:23:18.471Z,40.70
2023-05-06T03:26:08.666Z,40.70
2023-05-06T03:28:57.548Z,42.70
2023-05-06T03:31:46.585Z,41.20
2023-05-06T03:34:35.084Z,41.07
2023-05-06T03:37:23.759Z,40.67
2023-05-06T03:40:17.638Z,41.77
2023-05-06T03:43:06.597Z,41.20
2023-05-06T03:45:55.429Z,41.63
2023-05-06T03:48:44.699Z,41.60
2023-05-06T03:51:36.560Z,41.83
2023-05-06T03:54:25.425Z,41.10
2023-05-06T03:57:15.358Z,41.60
2023-05-06T04:00:05.507Z,39.87
2023-05-06T04:03:04.604Z,40.97
2023-05-06T04:06:00.943Z,40.77
2023-05-06T04:08:49.610Z,46.30
2023-05-06T04:11:39.481Z,42.17
2023-05-06T04:14:31.941Z,40.87
2023-05-06T04:17:20.884Z,40.30
2023-05-06T04:20:11.946Z,40.50
2023-05-06T04:23:02.776Z,41.30
2023-05-06T04:25:51.419Z,40.50
2023-05-06T04:28:41.862Z,41.77
2023-05-06T04:31:34.434Z,41.00
2023-05-06T04:34:27.786Z,41.47
2023-05-06T04:37:18.908Z,40.77
2023-05-06T04:40:13.750Z,40.80
2023-05-06T04:43:05.238Z,43.00
2023-05-06T04:45:54.386Z,41.47
2023-05-06T04:48:49.006Z,40.60
2023-05-06T04:51:38.286Z,40.77
2023-05-06T04:54:27.089Z,42.40
2023-05-06T04:57:15.479Z,41.20
2023-05-06T05:00:07.831Z,41.60
2023-05-06T05:02:56.504Z,41.60
2023-05-06T05:05:46.220Z,40.30
2023-05-06T05:08:40.875Z,41.67
2023-05-06T05:11:30.497Z,40.60
2023-05-06T05:14:20.513Z,42.37
2023-05-06T05:17:09.045Z,44.00
2023-05-06T05:19:58.983Z,41.47
2023-05-06T05:22:49.963Z,41.40
2023-05-06T05:25:38.469Z,41.87
2023-05-06T05:28:27.498Z,40.67
2023-05-06T05:31:17.068Z,43.13
2023-05-06T05:34:06.071Z,41.87
2023-05-06T05:36:54.400Z,41.80
2023-05-06T05:39:44.202Z,41.67
2023-05-06T05:42:34.104Z,43.60
2023-05-06T05:45:27.822Z,41.37
2023-05-06T05:48:17.369Z,41.67
2023-05-06T05:51:06.936Z,42.00
2023-05-06T05:53:55.392Z,43.27
2023-05-06T05:56:47.204Z,41.30
2023-05-06T05:59:37.528Z,42.77
2023-05-06T06:02:27.154Z,41.10
2023-05-06T06:05:15.554Z,43.97
2023-05-06T06:08:04.090Z,41.80
2023-05-06T06:10:53.441Z,42.80
2023-05-06T06:13:47.481Z,41.30
2023-05-06T06:16:37.713Z,41.97
2023-05-06T06:19:26.202Z,42.07
2023-05-06T06:22:14.720Z,45.63
2023-05-06T06:25:03.183Z,42.10
2023-05-06T06:27:51.624Z,42.37
2023-05-06T06:30:41.864Z,42.50
2023-05-06T06:33:30.170Z,43.57
2023-05-06T06:36:18.504Z,42.40
2023-05-06T06:39:07.503Z,42.03
2023-05-06T06:41:57.416Z,41.87
2023-05-06T06:44:45.989Z,42.27
2023-05-06T06:47:35.776Z,43.43
2023-05-06T06:50:24.140Z,43.47
2023-05-06T06:53:12.773Z,45.37
2023-05-06T06:56:01.207Z,43.83
2023-05-06T06:58:51.212Z,42.47
2023-05-06T07:01:42.675Z,43.10
2023-05-06T07:04:32.538Z,43.07
2023-05-06T07:07:20.941Z,43.30
2023-05-06T07:10:10.015Z,44.30
2023-05-06T07:12:58.668Z,44.00
2023-05-06T07:15:47.130Z,43.93
2023-05-06T07:18:35.534Z,44.13
2023-05-06T07:21:25.356Z,43.30
2023-05-06T07:24:13.757Z,43.33
2023-05-06T07:27:02.411Z,43.07
2023-05-06T07:29:50.998Z,44.27
2023-05-06T07:32:41.052Z,43.40
2023-05-06T07:35:29.454Z,42.93
2023-05-06T07:38:19.158Z,44.37
2023-05-06T07:41:07.558Z,43.80
2023-05-06T07:43:55.930Z,44.33
2023-05-06T07:46:44.551Z,44.17
2023-05-06T07:49:34.140Z,46.33
2023-05-06T07:52:22.615Z,42.43
2023-05-06T07:55:12.706Z,43.10
2023-05-06T07:58:01.343Z,43.27
2023-05-06T08:00:49.746Z,44.20
2023-05-06T08:03:38.312Z,44.50
2023-05-06T08:06:27.149Z,42.60
2023-05-06T08:09:22.727Z,44.07
2023-05-06T08:12:38.516Z,42.80
2023-05-06T08:15:27.099Z,43.63
2023-05-06T08:18:22.309Z,44.50
2023-05-06T08:21:11.069Z,42.80
2023-05-06T08:23:59.551Z,42.70
2023-05-06T08:26:47.896Z,43.10
2023-05-06T08:29:37.637Z,43.37
2023-05-06T08:32:26.194Z,42.67
2023-05-06T08:35:14.605Z,43.00
2023-05-06T08:38:03.021Z,42.87
2023-05-06T08:40:53.815Z,44.47
2023-05-06T08:43:42.811Z,42.60
2023-05-06T08:46:32.817Z,42.20
2023-05-06T08:49:21.258Z,42.60
2023-05-06T08:52:09.825Z,43.40
2023-05-06T08:55:01.516Z,43.40
2023-05-06T08:57:50.590Z,42.63
2023-05-06T09:00:39.156Z,42.20
2023-05-06T09:03:29.050Z,42.00
2023-05-06T09:06:17.513Z,42.07
2023-05-06T09:09:06.493Z,42.43
2023-05-06T09:11:57.488Z,42.50
2023-05-06T09:14:46.719Z,42.60
2023-05-06T09:17:35.145Z,42.77
2023-05-06T09:20:24.870Z,42.30
2023-05-06T09:23:15.015Z,42.23
2023-05-06T09:26:03.418Z,41.87
2023-05-06T09:28:52.455Z,42.60
2023-05-06T09:31:44.935Z,41.20
2023-05-06T09:34:33.460Z,42.73
2023-05-06T09:37:23.221Z,42.70
2023-05-06T09:40:12.165Z,42.90
2023-05-06T09:43:01.333Z,42.30
2023-05-06T09:45:49.880Z,42.60
2023-05-06T09:48:38.688Z,42.17
2023-05-06T09:51:28.544Z,41.70
2023-05-06T09:54:18.685Z,42.30
2023-05-06T09:57:07.174Z,42.00
2023-05-06T09:59:55.658Z,43.63
2023-05-06T10:02:45.213Z,41.27
2023-05-06T10:05:33.936Z,41.50
2023-05-06T10:08:24.446Z,42.10
2023-05-06T10:11:14.775Z,42.47
2023-05-06T10:14:03.828Z,42.40
2023-05-06T10:16:52.871Z,41.50
2023-05-06T10:19:43.961Z,41.37
2023-05-06T10:22:40.034Z,41.90
2023-05-06T10:25:33.770Z,41.50
2023-05-06T10:28:29.889Z,40.90
2023-05-06T10:31:20.085Z,43.90
2023-05-06T10:34:09.021Z,41.20
2023-05-06T10:36:58.513Z,40.87
2023-05-06T10:39:47.354Z,40.83
2023-05-06T10:43:22.467Z,41.77
2023-05-06T10:46:13.996Z,41.00
2023-05-06T10:49:19.926Z,43.37
2023-05-06T10:52:14.302Z,40.60
2023-05-06T10:55:02.756Z,41.27
2023-05-06T10:57:55.685Z,40.40
2023-05-06T11:00:54.330Z,41.30
2023-05-06T11:03:45.154Z,40.37
2023-05-06T11:06:38.244Z,40.47
2023-05-06T11:09:28.533Z,40.47
2023-05-06T11:12:21.407Z,41.03
2023-05-06T11:15:25.925Z,40.90
2023-05-06T11:18:44.252Z,40.43
2023-05-06T11:21:42.033Z,39.80
2023-05-06T11:24:31.724Z,40.40
2023-05-06T11:27:22.587Z,40.43
2023-05-06T11:30:14.863Z,39.70
2023-05-06T11:33:05.673Z,40.77
2023-05-06T11:35:55.846Z,40.47
2023-05-06T11:38:45.036Z,39.93
2023-05-06T11:41:34.304Z,40.73
2023-05-06T11:44:27.032Z,39.30
2023-05-06T11:47:15.444Z,39.73
2023-05-06T11:50:07.574Z,41.47
2023-05-06T11:52:57.484Z,42.40
2023-05-06T11:55:46.111Z,39.70
2023-05-06T11:58:34.856Z,40.00
2023-05-06T12:01:23.397Z,40.70
2023-05-06T12:04:40.571Z,39.57
2023-05-06T12:07:28.954Z,39.70
2023-05-06T12:10:20.047Z,40.00
2023-05-06T12:13:08.519Z,39.43
2023-05-06T12:15:57.220Z,38.30
2023-05-06T12:18:45.817Z,39.07
2023-05-06T12:21:39.061Z,39.57
2023-05-06T12:24:30.623Z,39.63
2023-05-06T12:27:33.223Z,39.37
2023-05-06T12:30:30.352Z,39.03
2023-05-06T12:33:18.795Z,39.73
2023-05-06T12:36:10.486Z,39.30
2023-05-06T12:39:00.350Z,39.27
2023-05-06T12:41:49.202Z,38.70
2023-05-06T12:44:40.125Z,38.50
2023-05-06T12:47:28.599Z,39.77
2023-05-06T12:50:31.908Z,38.77
2023-05-06T12:53:32.271Z,38.50
2023-05-06T12:56:20.833Z,37.80
2023-05-06T12:59:09.223Z,38.70
2023-05-06T13:01:59.137Z,39.43
2023-05-06T13:04:47.602Z,40.07
2023-05-06T13:07:35.989Z,38.47
2023-05-06T13:10:24.421Z,38.30
2023-05-06T13:13:12.867Z,39.00
2023-05-06T13:16:01.564Z,39.50
2023-05-06T13:18:52.108Z,38.73
2023-05-06T13:21:40.975Z,38.60
2023-05-06T13:24:29.494Z,38.30
2023-05-06T13:27:18.012Z,39.20
2023-05-06T13:30:08.805Z,37.63
2023-05-06T13:32:57.880Z,38.77
2023-05-06T13:35:47.705Z,38.33
2023-05-06T13:38:36.064Z,39.97
2023-05-06T13:41:25.400Z,39.13
2023-05-06T13:44:13.899Z,38.00
2023-05-06T13:47:02.420Z,39.53
2023-05-06T13:49:50.855Z,44.50
2023-05-06T13:52:40.673Z,37.90
2023-05-06T13:55:29.246Z,38.07
2023-05-06T13:58:18.336Z,39.17
2023-05-06T14:01:07.318Z,39.97
2023-05-06T14:03:55.899Z,37.00
2023-05-06T14:06:44.279Z,36.67
2023-05-06T14:09:34.063Z,38.30
2023-05-06T14:12:23.242Z,37.43
2023-05-06T14:15:13.106Z,38.93
2023-05-06T14:18:01.793Z,38.10
2023-05-06T14:20:50.226Z,37.30
2023-05-06T14:23:38.830Z,36.77
2023-05-06T14:26:28.593Z,36.53
2023-05-06T14:29:16.940Z,35.17
2023-05-06T14:32:05.871Z,36.80
2023-05-06T14:34:54.343Z,34.70
2023-05-06T14:37:42.752Z,36.93
2023-05-06T14:40:31.251Z,35.40
2023-05-06T14:43:20.944Z,34.30
2023-05-06T14:46:09.410Z,37.23
2023-05-06T14:48:57.856Z,33.17
2023-05-06T14:51:48.105Z,35.77
2023-05-06T14:54:42.076Z,36.87
2023-05-06T14:57:30.597Z,34.60
2023-05-06T15:00:20.889Z,34.57
2023-05-06T15:03:09.355Z,33.30
2023-05-06T15:05:57.875Z,33.10
2023-05-06T15:08:46.589Z,34.27
2023-05-06T15:11:34.954Z,32.70
2023-05-06T15:14:23.358Z,35.77
2023-05-06T15:17:13.486Z,34.47
2023-05-06T15:20:02.015Z,34.77
2023-05-06T15:22:50.437Z,32.50
2023-05-06T15:25:39.019Z,34.37
2023-05-06T15:28:27.495Z,32.40
2023-05-06T15:31:15.941Z,32.97
2023-05-06T15:34:06.030Z,33.60
2023-05-06T15:36:54.805Z,32.60
2023-05-06T15:39:43.177Z,30.47
2023-05-06T15:42:31.685Z,30.90
2023-05-06T15:45:20.348Z,32.43
2023-05-06T15:48:08.878Z,33.77
2023-05-06T15:50:58.652Z,30.97
2023-05-06T15:53:47.170Z,34.10
2023-05-06T15:56:40.749Z,33.43
2023-05-06T15:59:29.890Z,34.47
2023-05-06T16:05:10.498Z,33.73
2023-05-06T16:08:00.353Z,32.93
2023-05-06T16:10:48.739Z,33.07
2023-05-06T16:13:37.112Z,32.87
2023-05-06T16:16:25.540Z,31.30
2023-05-06T16:19:13.991Z,32.07
2023-05-06T16:22:02.541Z,35.30
2023-05-06T16:24:52.319Z,34.00
2023-05-06T16:27:41.741Z,34.90
2023-05-06T16:30:30.110Z,34.20
2023-05-06T16:33:18.482Z,33.67
2023-05-06T16:36:07.748Z,31.90
2023-05-06T16:38:56.279Z,32.50
2023-05-06T16:41:46.512Z,36.10
2023-05-06T16:44:35.193Z,34.60
2023-05-06T16:47:24.317Z,36.60
2023-05-06T16:50:14.114Z,37.30
2023-05-06T16:53:02.533Z,36.10
2023-05-06T16:55:50.919Z,34.90
2023-05-06T16:58:40.698Z,36.40
2023-05-06T17:01:29.239Z,35.80
2023-05-06T17:04:17.721Z,36.97
2023-05-06T17:07:06.407Z,35.50
2023-05-06T17:09:54.787Z,36.77
2023-05-06T17:12:43.252Z,36.80
2023-05-06T17:15:33.098Z,38.00
2023-05-06T17:18:21.489Z,36.60
2023-05-06T17:21:09.828Z,36.70
2023-05-06T17:24:00.153Z,37.07
2023-05-06T17:26:48.510Z,38.90
2023-05-06T17:29:36.953Z,38.50
2023-05-06T17:32:26.797Z,38.97
2023-05-06T17:35:15.196Z,38.00
2023-05-06T17:38:03.529Z,39.70
2023-05-06T17:40:51.951Z,39.50
2023-05-06T17:43:40.294Z,39.80
2023-05-06T17:46:28.726Z,39.23
2023-05-06T17:49:18.404Z,39.40
2023-05-06T17:52:06.926Z,38.53
2023-05-06T17:55:11.185Z,39.43
2023-05-06T17:58:04.735Z,39.20
2023-05-06T18:00:53.132Z,40.37
2023-05-06T18:03:41.580Z,39.20
2023-05-06T18:06:31.265Z,41.30
2023-05-06T18:09:19.710Z,40.63
2023-05-06T18:12:08.417Z,40.70
2023-05-06T18:14:56.836Z,40.20
2023-05-06T18:17:46.079Z,40.80
2023-05-06T18:20:34.556Z,39.87
2023-05-06T18:23:24.261Z,40.67
2023-05-06T18:26:12.601Z,40.77
2023-05-06T18:29:03.118Z,41.97
2023-05-06T18:31:51.477Z,41.37
2023-05-06T18:34:40.685Z,40.73
2023-05-06T18:37:29.444Z,41.80
2023-05-06T18:40:19.425Z,41.77
2023-05-06T18:43:08.161Z,41.90
2023-05-06T18:45:56.632Z,42.00
2023-05-06T18:48:45.136Z,41.83
2023-05-06T18:51:33.539Z,41.57
2023-05-06T18:54:21.957Z,42.37
2023-05-06T18:57:12.188Z,41.57
2023-05-06T19:00:00.670Z,43.30
2023-05-06T19:02:49.188Z,42.07
2023-05-06T19:05:37.981Z,42.73
2023-05-06T19:08:26.307Z,41.80
2023-05-06T19:11:16.216Z,41.93
2023-05-06T19:14:05.945Z,41.90
2023-05-06T19:16:54.594Z,42.43
2023-05-06T19:19:45.694Z,42.53
2023-05-06T19:22:34.375Z,42.30
2023-05-06T19:25:22.704Z,42.70
2023-05-06T19:28:11.022Z,43.17
2023-05-06T19:31:00.874Z,42.97
2023-05-06T19:33:49.253Z,43.20
2023-05-06T19:36:37.610Z,43.13
2023-05-06T19:39:26.211Z,43.93
2023-05-06T19:42:15.185Z,42.97
2023-05-06T19:45:07.936Z,43.77
2023-05-06T19:47:58.146Z,43.90
2023-05-06T19:50:46.814Z,44.40
2023-05-06T19:53:35.761Z,42.70
2023-05-06T19:56:24.178Z,42.80
2023-05-06T19:59:12.994Z,43.00
2023-05-06T20:02:01.854Z,43.17
2023-05-06T20:04:51.616Z,44.67
2023-05-06T20:07:39.996Z,43.43
2023-05-06T20:10:28.899Z,44.53
2023-05-06T20:13:17.866Z,43.03
2023-05-06T20:16:06.781Z,43.20
2023-05-06T20:18:55.354Z,44.40
2023-05-06T20:21:45.094Z,44.87
2023-05-06T20:24:34.748Z,43.67
2023-05-06T20:27:23.188Z,43.07
2023-05-06T20:30:12.491Z,43.77
2023-05-06T20:33:01.256Z,43.87
2023-05-06T20:35:51.020Z,43.27
2023-05-06T20:38:40.794Z,44.10
2023-05-06T20:41:29.133Z,43.90
2023-05-06T20:44:17.448Z,43.60
2023-05-06T20:47:10.465Z,43.37
2023-05-06T20:49:59.140Z,43.13
2023-05-06T20:52:48.216Z,43.70
2023-05-06T20:55:38.019Z,43.17
2023-05-06T20:58:28.566Z,44.50
2023-05-06T21:01:17.082Z,47.67
2023-05-06T21:04:06.341Z,44.47
2023-05-06T21:06:54.730Z,43.97
2023-05-06T21:09:43.138Z,43.47
2023-05-06T21:12:34.076Z,43.70
2023-05-06T21:15:22.508Z,43.37
2023-05-06T21:18:10.962Z,42.97
2023-05-06T21:20:59.768Z,43.90
2023-05-06T21:23:48.121Z,43.60
2023-05-06T21:26:36.728Z,43.37
2023-05-06T21:29:26.418Z,43.57
2023-05-06T21:32:15.033Z,43.90
2023-05-06T21:35:04.035Z,43.60
2023-05-06T21:37:53.024Z,44.00
2023-05-06T21:40:41.386Z,43.67
2023-05-06T21:43:31.349Z,43.53
2023-05-06T21:46:21.762Z,45.40
2023-05-06T21:49:10.559Z,43.10
2023-05-06T21:51:58.967Z,42.77
2023-05-06T21:54:47.341Z,43.20
2023-05-06T21:57:35.721Z,42.90
2023-05-06T22:00:24.150Z,44.27
2023-05-06T22:03:13.971Z,42.93
2023-05-06T22:06:02.332Z,43.70
2023-05-06T22:08:50.661Z,43.47
2023-05-06T22:11:39.101Z,42.83
2023-05-06T22:14:37.342Z,46.57
2023-05-06T22:17:29.164Z,42.13
2023-05-06T22:20:18.935Z,42.20
2023-05-06T22:23:07.487Z,42.77
2023-05-06T22:25:56.121Z,42.70
2023-05-06T22:28:45.479Z,42.50
2023-05-06T22:31:33.929Z,42.40
2023-05-06T22:34:22.238Z,42.70
2023-05-06T22:37:12.219Z,42.70
2023-05-06T22:40:00.565Z,52.43
2023-05-06T22:42:49.048Z,41.80
2023-05-06T22:45:37.664Z,42.10
2023-05-06T22:48:26.122Z,43.07
2023-05-06T22:51:15.776Z,42.27
2023-05-06T22:54:05.483Z,41.27
2023-05-06T22:56:53.873Z,43.57
2023-05-06T22:59:42.622Z,42.00
2023-05-06T23:02:30.964Z,41.77
2023-05-06T23:05:19.347Z,41.70
2023-05-06T23:08:07.696Z,42.30
2023-05-06T23:10:57.360Z,42.70
2023-05-06T23:13:45.745Z,42.27
2023-05-06T23:16:34.193Z,41.93
2023-05-06T23:19:24.889Z,42.77
2023-05-06T23:22:14.196Z,47.57
2023-05-06T23:25:02.586Z,41.27
2023-05-06T23:27:52.468Z,42.30
2023-05-06T23:30:41.073Z,42.37
2023-05-06T23:33:29.407Z,41.20
2023-05-06T23:36:17.804Z,41.57
2023-05-06T23:39:06.118Z,40.50
2023-05-06T23:41:54.450Z,41.80
2023-05-06T23:44:44.110Z,40.87
2023-05-06T23:47:32.464Z,41.20
2023-05-06T23:50:20.868Z,47.60
2023-05-06T23:53:09.238Z,41.83
2023-05-06T23:55:57.520Z,42.90
2023-05-06T23:58:45.898Z,41.67
